createdAt,value
2018-06-13T00:00:36.612Z,29.8
2018-06-13T00:01:39.335Z,29.8
2018-06-13T00:02:42.046Z,29.8
2018-06-13T00:03:44.761Z,30.3
2018-06-13T00:04:47.477Z,30.3
2018-06-13T00:05:50.199Z,30.3
2018-06-13T00:06:52.911Z,30.3
2018-06-13T00:07:55.629Z,29.8
2018-06-13T00:08:58.361Z,29.8
2018-06-13T00:10:01.079Z,29.8
2018-06-13T00:11:03.807Z,30.3
2018-06-13T00:12:06.519Z,29.8
2018-06-13T00:13:09.241Z,29.8
2018-06-13T00:14:11.954Z,29.8
2018-06-13T00:15:14.681Z,29.8
2018-06-13T00:16:17.414Z,29.8
2018-06-13T00:17:20.136Z,29.8
2018-06-13T00:18:23.048Z,29.8
2018-06-13T00:19:25.778Z,29.3
2018-06-13T00:20:28.515Z,29.8
2018-06-13T00:21:30.963Z,29.8
2018-06-13T00:22:33.677Z,29.8
2018-06-13T00:23:36.427Z,29.8
2018-06-13T00:24:39.379Z,29.3
2018-06-13T00:25:42.099Z,29.8
2018-06-13T00:26:44.829Z,29.3
2018-06-13T00:27:47.550Z,29.8
2018-06-13T00:28:50.271Z,29.8
2018-06-13T00:29:52.982Z,29.3
2018-06-13T00:30:55.703Z,29.8
2018-06-13T00:31:58.422Z,29.3
2018-06-13T00:33:01.143Z,29.3
2018-06-13T00:34:03.590Z,29.3
2018-06-13T00:35:06.309Z,29.3
2018-06-13T00:36:09.027Z,29.3
2018-06-13T00:37:11.914Z,29.8
2018-06-13T00:38:14.731Z,29.3
2018-06-13T00:39:17.470Z,29.3
2018-06-13T00:40:20.183Z,29.3
2018-06-13T00:41:22.627Z,29.3
2018-06-13T00:42:25.077Z,29.3
2018-06-13T00:43:27.810Z,29.8
2018-06-13T00:44:30.522Z,29.3
2018-06-13T00:45:32.987Z,29.3
2018-06-13T00:46:35.744Z,29.3
2018-06-13T00:47:38.454Z,29.3
2018-06-13T00:48:41.184Z,28.8
2018-06-13T00:49:43.899Z,29.3
2018-06-13T00:50:46.644Z,29.3
2018-06-13T00:51:49.385Z,29.3
2018-06-13T00:52:52.100Z,28.8
2018-06-13T00:53:54.844Z,28.8
2018-06-13T00:54:57.285Z,29.3
2018-06-13T00:55:59.730Z,29.3
2018-06-13T00:57:02.466Z,28.8
2018-06-13T00:58:05.175Z,29.3
2018-06-13T00:59:07.628Z,29.3
2018-06-13T01:00:10.091Z,29.3
2018-06-13T01:01:12.539Z,28.8
2018-06-13T01:02:15.258Z,28.8
2018-06-13T01:03:17.967Z,28.8
2018-06-13T01:04:20.430Z,29.3
2018-06-13T01:05:23.149Z,28.8
2018-06-13T01:06:25.864Z,29.3
2018-06-13T01:07:28.590Z,29.3
2018-06-13T01:08:31.297Z,29.3
2018-06-13T01:09:34.020Z,29.3
2018-06-13T01:10:36.745Z,28.8
2018-06-13T01:11:39.463Z,29.3
2018-06-13T01:12:42.167Z,29.3
2018-06-13T01:13:44.883Z,28.8
2018-06-13T01:14:47.601Z,29.3
2018-06-13T01:15:50.341Z,29.3
2018-06-13T01:16:53.052Z,29.3
2018-06-13T01:17:55.764Z,29.3
2018-06-13T01:18:58.487Z,29.3
2018-06-13T01:20:01.214Z,28.8
2018-06-13T01:21:03.658Z,29.3
2018-06-13T01:22:06.382Z,28.8
2018-06-13T01:23:09.118Z,29.8
2018-06-13T01:24:11.844Z,29.3
2018-06-13T01:25:14.560Z,28.8
2018-06-13T01:26:17.306Z,29.3
2018-06-13T01:27:20.017Z,29.3
2018-06-13T01:28:22.481Z,29.3
2018-06-13T01:29:25.349Z,29.3
2018-06-13T01:30:28.066Z,28.8
2018-06-13T01:31:30.779Z,28.8
2018-06-13T01:32:33.506Z,29.3
2018-06-13T01:33:36.232Z,29.3
2018-06-13T01:34:38.948Z,29.3
2018-06-13T01:35:41.682Z,29.3
2018-06-13T01:36:44.388Z,28.8
2018-06-13T01:37:47.113Z,28.8
2018-06-13T01:38:49.566Z,29.3
2018-06-13T01:39:52.010Z,29.3
2018-06-13T01:40:54.731Z,29.3
2018-06-13T01:41:57.452Z,29.3
2018-06-13T01:43:00.156Z,29.3
2018-06-13T01:44:02.869Z,30.3
2018-06-13T01:45:05.583Z,30.3
2018-06-13T01:46:08.301Z,30.3
2018-06-13T01:47:11.013Z,30.8
2018-06-13T01:48:13.764Z,30.3
2018-06-13T01:49:16.507Z,30.8
2018-06-13T01:50:19.214Z,30.8
2018-06-13T01:51:21.927Z,30.8
2018-06-13T01:52:24.664Z,31.3
2018-06-13T01:53:27.380Z,31.3
2018-06-13T01:54:30.098Z,31.8
2018-06-13T01:55:32.821Z,31.3
2018-06-13T01:56:35.531Z,31.8
2018-06-13T01:57:37.977Z,31.8
2018-06-13T01:58:40.693Z,31.8
2018-06-13T01:59:43.405Z,32.3
2018-06-13T02:00:45.855Z,32.3
2018-06-13T02:01:48.562Z,32.3
2018-06-13T02:02:51.008Z,32.3
2018-06-13T02:03:53.723Z,32.3
2018-06-13T02:04:56.442Z,32.3
2018-06-13T02:05:59.156Z,32.7
2018-06-13T02:07:01.883Z,32.3
2018-06-13T02:08:04.621Z,32.3
2018-06-13T02:09:07.364Z,32.3
2018-06-13T02:10:10.088Z,32.7
2018-06-13T02:11:12.816Z,32.7
2018-06-13T02:12:15.276Z,32.7
2018-06-13T02:13:17.992Z,33.2
2018-06-13T02:14:20.701Z,33.2
2018-06-13T02:15:23.415Z,32.7
2018-06-13T02:16:26.139Z,32.7
2018-06-13T02:17:28.864Z,33.2
2018-06-13T02:18:31.601Z,32.7
2018-06-13T02:19:34.329Z,32.7
2018-06-13T02:20:37.058Z,33.2
2018-06-13T02:21:39.889Z,33.2
2018-06-13T02:22:42.369Z,33.7
2018-06-13T02:23:45.091Z,33.2
2018-06-13T02:24:47.529Z,33.7
2018-06-13T02:25:50.266Z,33.2
2018-06-13T02:26:52.980Z,33.2
2018-06-13T02:27:55.692Z,33.2
2018-06-13T02:28:58.130Z,33.2
2018-06-13T02:30:00.866Z,33.2
2018-06-13T02:31:03.588Z,33.2
2018-06-13T02:32:06.306Z,33.2
2018-06-13T02:33:09.019Z,33.7
2018-06-13T02:34:11.756Z,33.2
2018-06-13T02:35:14.506Z,33.2
2018-06-13T02:36:17.244Z,33.2
2018-06-13T02:37:19.974Z,33.7
2018-06-13T02:38:22.704Z,33.7
2018-06-13T02:39:25.413Z,33.2
2018-06-13T02:40:28.132Z,33.2
2018-06-13T02:41:30.847Z,33.2
2018-06-13T02:42:33.568Z,33.2
2018-06-13T02:43:36.286Z,33.2
2018-06-13T02:44:39.000Z,33.2
2018-06-13T02:45:41.715Z,32.7
2018-06-13T02:46:44.423Z,33.2
2018-06-13T02:47:46.875Z,33.2
2018-06-13T02:48:49.608Z,33.7
2018-06-13T02:49:52.324Z,33.7
2018-06-13T02:50:55.036Z,33.7
2018-06-13T02:51:57.762Z,33.2
2018-06-13T02:53:00.485Z,33.2
2018-06-13T02:54:03.277Z,32.7
2018-06-13T02:55:05.986Z,33.2
2018-06-13T02:56:08.714Z,33.7
2018-06-13T02:57:11.435Z,33.7
2018-06-13T02:58:14.197Z,33.2
2018-06-13T02:59:16.915Z,33.2
2018-06-13T03:00:19.629Z,32.7
2018-06-13T03:01:22.356Z,33.2
2018-06-13T03:02:25.072Z,33.2
2018-06-13T03:03:27.792Z,33.7
2018-06-13T03:04:30.239Z,33.7
2018-06-13T03:05:33.024Z,32.7
2018-06-13T03:06:35.743Z,32.7
2018-06-13T03:07:38.454Z,32.3
2018-06-13T03:08:41.183Z,32.7
2018-06-13T03:09:43.667Z,32.7
2018-06-13T03:10:46.119Z,32.3
2018-06-13T03:11:48.835Z,32.3
2018-06-13T03:12:51.559Z,32.3
2018-06-13T03:13:54.295Z,32.3
2018-06-13T03:14:57.028Z,32.3
2018-06-13T03:15:59.752Z,32.3
2018-06-13T03:17:02.484Z,32.3
2018-06-13T03:18:05.223Z,32.3
2018-06-13T03:19:07.942Z,32.3
2018-06-13T03:20:10.392Z,32.3
2018-06-13T03:21:13.108Z,32.3
2018-06-13T03:22:15.819Z,31.8
2018-06-13T03:23:18.532Z,32.3
2018-06-13T03:24:21.244Z,32.3
2018-06-13T03:25:23.956Z,32.7
2018-06-13T03:26:26.667Z,32.3
2018-06-13T03:27:29.109Z,32.7
2018-06-13T03:28:31.830Z,32.7
2018-06-13T03:29:34.544Z,32.7
2018-06-13T03:30:37.257Z,32.7
2018-06-13T03:31:39.989Z,32.7
2018-06-13T03:32:42.720Z,32.7
2018-06-13T03:33:46.144Z,32.7
2018-06-13T03:34:49.153Z,32.7
2018-06-13T03:35:51.985Z,32.7
2018-06-13T03:36:54.794Z,32.3
2018-06-13T03:37:57.629Z,33.2
2018-06-13T03:39:00.361Z,32.7
2018-06-13T03:40:03.089Z,32.7
2018-06-13T03:41:05.962Z,32.7
2018-06-13T03:42:08.696Z,32.7
2018-06-13T03:43:11.416Z,33.2
2018-06-13T03:44:14.137Z,32.7
2018-06-13T03:45:16.843Z,32.7
2018-06-13T03:46:19.556Z,33.2
2018-06-13T03:47:22.003Z,32.7
2018-06-13T03:48:24.728Z,33.2
2018-06-13T03:49:27.462Z,33.7
2018-06-13T03:50:30.179Z,33.2
2018-06-13T03:51:32.894Z,33.2
2018-06-13T03:52:35.350Z,33.2
2018-06-13T03:53:38.070Z,32.7
2018-06-13T03:54:40.995Z,33.2
2018-06-13T03:55:43.709Z,32.7
2018-06-13T03:56:46.423Z,32.7
2018-06-13T03:57:49.136Z,32.7
2018-06-13T03:58:51.846Z,32.7
2018-06-13T03:59:54.568Z,32.7
2018-06-13T04:00:57.305Z,32.7
2018-06-13T04:02:00.019Z,32.7
2018-06-13T04:03:02.746Z,32.7
2018-06-13T04:04:05.489Z,32.7
2018-06-13T04:05:08.210Z,32.7
2018-06-13T04:06:10.931Z,32.7
2018-06-13T04:07:13.938Z,32.7
2018-06-13T04:08:16.719Z,32.7
2018-06-13T04:09:19.442Z,32.7
2018-06-13T04:10:22.162Z,32.7
2018-06-13T04:11:24.878Z,32.7
2018-06-13T04:12:27.594Z,32.7
2018-06-13T04:13:30.308Z,32.7
2018-06-13T04:14:33.020Z,32.3
2018-06-13T04:15:35.748Z,32.3
2018-06-13T04:16:38.461Z,32.3
2018-06-13T04:17:41.202Z,32.3
2018-06-13T04:18:44.096Z,32.3
2018-06-13T04:19:46.817Z,32.7
2018-06-13T04:20:49.553Z,32.7
2018-06-13T04:21:52.302Z,32.7
2018-06-13T04:22:55.049Z,32.7
2018-06-13T04:23:57.769Z,32.7
2018-06-13T04:25:00.480Z,32.3
2018-06-13T04:26:03.203Z,32.7
2018-06-13T04:27:05.951Z,32.7
2018-06-13T04:28:08.689Z,32.7
2018-06-13T04:29:11.409Z,32.7
2018-06-13T04:30:14.145Z,32.3
2018-06-13T04:31:16.881Z,32.7
2018-06-13T04:32:19.605Z,32.3
2018-06-13T04:33:22.103Z,32.7
2018-06-13T04:34:24.835Z,32.3
2018-06-13T04:35:27.559Z,32.3
2018-06-13T04:36:30.290Z,32.3
2018-06-13T04:37:32.750Z,32.7
2018-06-13T04:38:35.466Z,32.7
2018-06-13T04:39:37.914Z,32.3
2018-06-13T04:40:40.635Z,32.7
2018-06-13T04:41:43.342Z,32.3
2018-06-13T04:42:46.062Z,32.7
2018-06-13T04:43:48.798Z,32.7
2018-06-13T04:44:51.518Z,32.7
2018-06-13T04:45:54.245Z,32.7
2018-06-13T04:46:56.957Z,32.7
2018-06-13T04:47:59.839Z,33.2
2018-06-13T04:49:02.565Z,32.3
2018-06-13T04:50:05.288Z,32.3
2018-06-13T04:51:08.014Z,32.3
2018-06-13T04:52:10.736Z,31.8
2018-06-13T04:53:13.451Z,32.3
2018-06-13T04:54:16.421Z,32.3
2018-06-13T04:55:19.182Z,32.3
2018-06-13T04:56:21.901Z,32.3
2018-06-13T04:57:24.620Z,31.8
2018-06-13T04:58:27.554Z,31.8
2018-06-13T04:59:30.266Z,32.3
2018-06-13T05:00:32.974Z,31.8
2018-06-13T05:01:35.700Z,31.8
2018-06-13T05:02:38.162Z,31.8
2018-06-13T05:03:40.892Z,31.8
2018-06-13T05:04:43.613Z,31.8
2018-06-13T05:05:46.340Z,32.3
2018-06-13T05:06:49.060Z,31.8
2018-06-13T05:07:51.808Z,32.3
2018-06-13T05:08:54.277Z,31.8
2018-06-13T05:09:57.009Z,31.8
2018-06-13T05:10:59.728Z,31.8
2018-06-13T05:12:02.166Z,31.8
2018-06-13T05:13:04.888Z,31.8
2018-06-13T05:14:07.638Z,31.8
2018-06-13T05:15:10.386Z,31.8
2018-06-13T05:16:13.101Z,32.3
2018-06-13T05:17:15.824Z,32.7
2018-06-13T05:18:18.578Z,32.3
2018-06-13T05:19:21.252Z,32.3
2018-06-13T05:20:23.960Z,32.3
2018-06-13T05:21:26.688Z,32.7
2018-06-13T05:22:29.421Z,32.3
2018-06-13T05:23:32.186Z,32.7
2018-06-13T05:24:34.929Z,32.3
2018-06-13T05:25:37.157Z,32.7
2018-06-13T05:26:39.899Z,32.3
2018-06-13T05:27:42.650Z,32.7
2018-06-13T05:28:45.686Z,32.7
2018-06-13T05:29:48.420Z,32.7
2018-06-13T05:30:51.172Z,32.3
2018-06-13T05:31:53.933Z,32.7
2018-06-13T05:32:56.684Z,32.7
2018-06-13T05:33:59.182Z,32.7
2018-06-13T05:35:01.892Z,33.2
2018-06-13T05:36:04.642Z,33.2
2018-06-13T05:37:07.372Z,32.7
2018-06-13T05:38:10.103Z,33.2
2018-06-13T05:39:12.826Z,32.7
2018-06-13T05:40:15.570Z,32.7
2018-06-13T05:41:18.287Z,33.2
2018-06-13T05:42:21.000Z,33.2
2018-06-13T05:43:23.719Z,33.2
2018-06-13T05:44:26.162Z,33.2
2018-06-13T05:45:28.880Z,33.2
2018-06-13T05:46:31.599Z,33.7
2018-06-13T05:47:34.327Z,33.7
2018-06-13T05:48:37.269Z,33.7
2018-06-13T05:49:39.708Z,33.2
2018-06-13T05:50:42.438Z,33.7
2018-06-13T05:51:45.167Z,33.2
2018-06-13T05:52:47.909Z,33.2
2018-06-13T05:53:50.638Z,33.2
2018-06-13T05:54:53.472Z,33.7
2018-06-13T05:55:55.967Z,33.2
2018-06-13T05:56:58.702Z,33.7
2018-06-13T05:58:01.845Z,33.7
2018-06-13T05:59:04.582Z,33.2
2018-06-13T06:00:07.301Z,33.7
2018-06-13T06:01:10.285Z,33.2
2018-06-13T06:02:13.002Z,33.7
2018-06-13T06:03:15.718Z,33.2
2018-06-13T06:04:18.440Z,33.2
2018-06-13T06:05:21.168Z,33.2
2018-06-13T06:06:23.901Z,33.2
2018-06-13T06:07:26.360Z,33.2
2018-06-13T06:08:29.094Z,33.2
2018-06-13T06:09:31.854Z,33.7
2018-06-13T06:10:35.046Z,33.2
2018-06-13T06:11:37.978Z,33.2
2018-06-13T06:12:40.912Z,33.2
2018-06-13T06:13:43.625Z,33.7
2018-06-13T06:14:46.379Z,33.7
2018-06-13T06:15:49.122Z,33.7
2018-06-13T06:16:51.849Z,33.7
2018-06-13T06:17:54.565Z,33.7
2018-06-13T06:18:57.028Z,33.7
2018-06-13T06:19:59.750Z,33.7
2018-06-13T06:21:02.466Z,33.7
2018-06-13T06:22:05.190Z,33.7
2018-06-13T06:23:07.645Z,33.2
2018-06-13T06:24:10.373Z,33.7
2018-06-13T06:25:13.105Z,33.2
2018-06-13T06:26:15.828Z,33.7
2018-06-13T06:27:18.549Z,33.2
2018-06-13T06:28:21.272Z,33.2
2018-06-13T06:29:23.997Z,33.2
2018-06-13T06:30:26.719Z,33.2
2018-06-13T06:31:29.481Z,33.2
2018-06-13T06:32:32.200Z,33.2
2018-06-13T06:33:34.927Z,33.2
2018-06-13T06:34:37.642Z,33.2
2018-06-13T06:35:40.353Z,33.2
2018-06-13T06:36:42.809Z,33.2
2018-06-13T06:37:45.533Z,32.3
2018-06-13T06:38:48.257Z,32.3
2018-06-13T06:39:50.988Z,32.7
2018-06-13T06:40:53.706Z,32.3
2018-06-13T06:41:56.443Z,32.3
2018-06-13T06:42:59.167Z,32.7
2018-06-13T06:44:01.887Z,32.3
2018-06-13T06:45:04.333Z,32.3
2018-06-13T06:46:07.060Z,32.3
2018-06-13T06:47:09.805Z,32.3
2018-06-13T06:48:12.541Z,32.7
2018-06-13T06:49:15.276Z,31.8
2018-06-13T06:50:18.005Z,32.3
2018-06-13T06:51:20.740Z,32.3
2018-06-13T06:52:23.478Z,32.3
2018-06-13T06:53:26.219Z,32.7
2018-06-13T06:54:28.943Z,32.3
2018-06-13T06:55:32.071Z,32.7
2018-06-13T06:56:34.879Z,32.3
2018-06-13T06:57:37.542Z,32.3
2018-06-13T06:58:40.240Z,32.3
2018-06-13T06:59:42.712Z,32.3
2018-06-13T07:00:45.448Z,32.7
2018-06-13T07:01:47.906Z,32.7
2018-06-13T07:02:50.708Z,32.7
2018-06-13T07:03:53.442Z,33.2
2018-06-13T07:04:56.162Z,32.7
2018-06-13T07:05:58.907Z,33.2
2018-06-13T07:07:01.331Z,36.7
2018-06-13T07:08:04.069Z,42.5
2018-06-13T07:09:06.798Z,45
2018-06-13T07:10:09.249Z,45.9
2018-06-13T07:11:11.993Z,46.9
2018-06-13T07:12:14.724Z,46.9
2018-06-13T07:13:17.856Z,46.4
2018-06-13T07:14:20.395Z,46.4
2018-06-13T07:15:23.114Z,46.4
2018-06-13T07:16:25.577Z,45.9
2018-06-13T07:17:28.306Z,45.9
2018-06-13T07:18:31.015Z,45.5
2018-06-13T07:19:33.734Z,45.5
2018-06-13T07:20:36.453Z,44.5
2018-06-13T07:21:39.201Z,44.5
2018-06-13T07:22:41.926Z,44
2018-06-13T07:23:44.658Z,44.5
2018-06-13T07:24:47.523Z,43.5
2018-06-13T07:25:50.264Z,43.5
2018-06-13T07:26:52.991Z,43
2018-06-13T07:27:55.712Z,43.5
2018-06-13T07:28:58.483Z,42.5
2018-06-13T07:30:01.211Z,42.5
2018-06-13T07:31:03.930Z,42
2018-06-13T07:32:06.661Z,42
2018-06-13T07:33:09.395Z,42.5
2018-06-13T07:34:12.133Z,42
2018-06-13T07:35:14.871Z,42
2018-06-13T07:36:17.326Z,41.5
2018-06-13T07:37:20.039Z,41.5
2018-06-13T07:38:22.758Z,41.1
2018-06-13T07:39:25.476Z,41.1
2018-06-13T07:40:28.199Z,41.1
2018-06-13T07:41:30.853Z,41.1
2018-06-13T07:42:33.637Z,41.1
2018-06-13T07:43:36.371Z,41.1
2018-06-13T07:44:39.107Z,40.6
2018-06-13T07:45:41.810Z,40.1
2018-06-13T07:46:44.579Z,40.6
2018-06-13T07:47:47.032Z,40.1
2018-06-13T07:48:49.755Z,40.6
2018-06-13T07:49:52.479Z,39.6
2018-06-13T07:50:55.210Z,39.6
2018-06-13T07:51:57.940Z,39.6
2018-06-13T07:53:00.658Z,40.1
2018-06-13T07:54:03.393Z,39.6
2018-06-13T07:55:06.203Z,40.1
2018-06-13T07:56:08.958Z,39.6
2018-06-13T07:57:11.700Z,39.1
2018-06-13T07:58:14.419Z,39.1
2018-06-13T07:59:17.137Z,38.6
2018-06-13T08:00:19.853Z,39.1
2018-06-13T08:01:22.576Z,39.1
2018-06-13T08:02:25.294Z,38.6
2018-06-13T08:03:28.059Z,39.1
2018-06-13T08:04:30.508Z,38.1
2018-06-13T08:05:33.235Z,38.6
2018-06-13T08:06:35.684Z,38.1
2018-06-13T08:07:38.768Z,38.1
2018-06-13T08:08:41.977Z,38.1
2018-06-13T08:09:44.946Z,38.1
2018-06-13T08:10:47.679Z,37.1
2018-06-13T08:11:50.421Z,37.6
2018-06-13T08:12:52.881Z,37.1
2018-06-13T08:13:55.603Z,37.1
2018-06-13T08:14:58.046Z,37.1
2018-06-13T08:16:00.774Z,36.7
2018-06-13T08:17:03.491Z,36.7
2018-06-13T08:18:06.236Z,36.7
2018-06-13T08:19:08.963Z,36.7
2018-06-13T08:20:11.690Z,36.7
2018-06-13T08:21:14.419Z,36.7
2018-06-13T08:22:17.143Z,36.2
2018-06-13T08:23:19.861Z,36.2
2018-06-13T08:24:22.580Z,35.7
2018-06-13T08:25:25.312Z,36.2
2018-06-13T08:26:28.049Z,36.2
2018-06-13T08:27:30.805Z,35.7
2018-06-13T08:28:33.274Z,36.2
2018-06-13T08:29:36.005Z,35.7
2018-06-13T08:30:38.772Z,36.2
2018-06-13T08:31:41.498Z,36.2
2018-06-13T08:32:44.227Z,36.2
2018-06-13T08:33:47.336Z,36.2
2018-06-13T08:34:50.204Z,35.7
2018-06-13T08:35:52.928Z,36.2
2018-06-13T08:36:55.644Z,36.7
2018-06-13T08:37:58.370Z,36.7
2018-06-13T08:39:01.099Z,36.7
2018-06-13T08:40:03.825Z,36.2
2018-06-13T08:41:06.753Z,36.7
2018-06-13T08:42:09.490Z,36.2
2018-06-13T08:43:12.217Z,36.2
2018-06-13T08:44:14.936Z,36.7
2018-06-13T08:45:17.674Z,36.2
2018-06-13T08:46:20.414Z,36.2
2018-06-13T08:47:23.138Z,36.2
2018-06-13T08:48:25.857Z,36.7
2018-06-13T08:49:28.616Z,36.7
2018-06-13T08:50:31.330Z,36.7
2018-06-13T08:51:34.060Z,36.7
2018-06-13T08:52:36.791Z,37.1
2018-06-13T08:53:39.521Z,36.2
2018-06-13T08:54:42.239Z,36.7
2018-06-13T08:55:45.179Z,36.7
2018-06-13T08:56:47.960Z,36.7
2018-06-13T08:57:50.413Z,36.2
2018-06-13T08:58:53.183Z,36.7
2018-06-13T08:59:55.913Z,36.7
2018-06-13T09:00:58.695Z,36.2
2018-06-13T09:02:01.418Z,36.2
2018-06-13T09:03:04.144Z,36.2
2018-06-13T09:04:06.863Z,36.7
2018-06-13T09:05:09.317Z,36.2
2018-06-13T09:06:12.035Z,36.2
2018-06-13T09:07:14.766Z,36.2
2018-06-13T09:08:17.479Z,36.7
2018-06-13T09:09:20.218Z,36.2
2018-06-13T09:10:22.948Z,36.2
2018-06-13T09:11:25.681Z,36.2
2018-06-13T09:12:28.395Z,36.2
2018-06-13T09:13:31.134Z,36.7
2018-06-13T09:14:33.873Z,36.2
2018-06-13T09:15:36.610Z,36.7
2018-06-13T09:16:39.355Z,36.2
2018-06-13T09:17:42.076Z,36.2
2018-06-13T09:18:44.796Z,36.7
2018-06-13T09:19:47.235Z,36.7
2018-06-13T09:20:49.970Z,36.2
2018-06-13T09:21:52.695Z,36.2
2018-06-13T09:22:55.164Z,36.2
2018-06-13T09:23:57.893Z,36.7
2018-06-13T09:25:00.351Z,35.7
2018-06-13T09:26:02.820Z,35.7
2018-06-13T09:27:05.546Z,36.2
2018-06-13T09:28:08.281Z,36.2
2018-06-13T09:29:10.998Z,35.7
2018-06-13T09:30:13.464Z,35.7
2018-06-13T09:31:16.292Z,36.2
2018-06-13T09:32:19.172Z,36.2
2018-06-13T09:33:21.660Z,36.2
2018-06-13T09:34:24.385Z,35.7
2018-06-13T09:35:27.115Z,35.7
2018-06-13T09:36:30.023Z,35.7
2018-06-13T09:37:33.302Z,36.2
2018-06-13T09:38:35.827Z,36.2
2018-06-13T09:39:38.572Z,36.2
2018-06-13T09:40:41.300Z,35.7
2018-06-13T09:41:44.026Z,35.7
2018-06-13T09:42:46.746Z,35.7
2018-06-13T09:43:49.458Z,35.7
2018-06-13T09:44:52.179Z,35.7
2018-06-13T09:46:13.748Z,35.7
2018-06-13T09:47:25.158Z,36.2
2018-06-13T09:48:27.881Z,35.7
2018-06-13T09:49:30.621Z,35.7
2018-06-13T09:50:33.347Z,35.7
2018-06-13T09:51:36.062Z,35.2
2018-06-13T09:52:38.804Z,34.7
2018-06-13T09:53:41.255Z,35.2
2018-06-13T09:54:44.047Z,34.7
2018-06-13T09:55:46.854Z,34.7
2018-06-13T09:56:49.970Z,34.2
2018-06-13T09:57:52.855Z,34.7
2018-06-13T09:58:55.586Z,34.2
2018-06-13T09:59:58.301Z,34.7
2018-06-13T10:01:01.049Z,34.2
2018-06-13T10:02:03.773Z,33.7
2018-06-13T10:03:35.755Z,34.2
2018-06-13T10:04:38.438Z,33.7
2018-06-13T10:05:41.195Z,33.7
2018-06-13T10:06:43.917Z,34.2
2018-06-13T10:07:46.654Z,33.7
2018-06-13T10:08:49.621Z,34.2
2018-06-13T10:09:52.341Z,34.2
2018-06-13T10:10:55.057Z,34.2
2018-06-13T10:11:57.976Z,33.7
2018-06-13T10:13:00.901Z,34.7
2018-06-13T10:14:03.672Z,34.2
2018-06-13T10:15:06.397Z,34.2
2018-06-13T10:16:09.151Z,34.2
2018-06-13T10:17:11.879Z,34.2
2018-06-13T10:18:14.604Z,34.7
2018-06-13T10:19:17.067Z,34.7
2018-06-13T10:20:19.802Z,34.2
2018-06-13T10:21:22.532Z,35.2
2018-06-13T10:22:25.273Z,34.2
2018-06-13T10:23:27.991Z,34.7
2018-06-13T10:24:30.716Z,34.2
2018-06-13T10:25:33.922Z,34.7
2018-06-13T10:26:36.891Z,35.2
2018-06-13T10:27:39.655Z,34.7
2018-06-13T10:28:42.393Z,35.2
2018-06-13T10:29:45.138Z,35.2
2018-06-13T10:30:47.871Z,35.2
2018-06-13T10:31:50.340Z,34.7
2018-06-13T10:32:53.057Z,35.2
2018-06-13T10:33:55.776Z,35.2
2018-06-13T10:34:58.227Z,35.2
2018-06-13T10:36:00.670Z,34.7
2018-06-13T10:37:03.413Z,34.7
2018-06-13T10:38:06.151Z,35.2
2018-06-13T10:39:08.878Z,35.2
2018-06-13T10:40:11.599Z,35.7
2018-06-13T10:41:14.544Z,35.2
2018-06-13T10:42:17.280Z,35.7
2018-06-13T10:43:20.001Z,35.2
2018-06-13T10:44:22.729Z,34.7
2018-06-13T10:45:25.471Z,35.2
2018-06-13T10:46:28.211Z,34.7
2018-06-13T10:47:30.682Z,35.2
2018-06-13T10:48:33.950Z,35.7
2018-06-13T10:49:36.890Z,35.7
2018-06-13T10:50:39.627Z,35.2
2018-06-13T10:51:42.346Z,35.2
2018-06-13T10:52:45.057Z,35.7
2018-06-13T10:53:47.786Z,35.7
2018-06-13T10:54:50.504Z,35.2
2018-06-13T10:55:53.241Z,35.2
2018-06-13T10:56:55.965Z,35.2
2018-06-13T10:57:58.701Z,35.2
2018-06-13T10:59:01.422Z,35.2
2018-06-13T11:00:03.876Z,35.2
2018-06-13T11:01:06.595Z,35.2
2018-06-13T11:02:09.318Z,35.2
2018-06-13T11:03:12.100Z,35.2
2018-06-13T11:04:14.829Z,35.2
2018-06-13T11:05:17.553Z,35.2
2018-06-13T11:06:20.285Z,35.2
2018-06-13T11:07:23.229Z,35.2
2018-06-13T11:08:25.951Z,35.2
2018-06-13T11:09:28.678Z,34.7
2018-06-13T11:10:31.422Z,35.2
2018-06-13T11:11:34.161Z,35.2
2018-06-13T11:12:36.868Z,35.2
2018-06-13T11:13:39.323Z,35.2
2018-06-13T11:14:42.061Z,35.2
2018-06-13T11:15:44.786Z,35.2
2018-06-13T11:16:47.258Z,34.7
2018-06-13T11:17:49.981Z,34.7
2018-06-13T11:18:52.715Z,35.2
2018-06-13T11:19:55.442Z,35.2
2018-06-13T11:20:58.162Z,35.2
2018-06-13T11:22:01.051Z,34.7
2018-06-13T11:23:03.778Z,35.2
2018-06-13T11:24:06.221Z,35.2
2018-06-13T11:25:08.951Z,34.7
2018-06-13T11:26:11.554Z,35.2
2018-06-13T11:27:14.380Z,35.2
2018-06-13T11:28:17.116Z,35.2
2018-06-13T11:29:19.837Z,35.2
2018-06-13T11:30:22.584Z,35.2
2018-06-13T11:31:25.023Z,35.2
2018-06-13T11:32:27.774Z,35.7
2018-06-13T11:33:30.501Z,35.2
2018-06-13T11:34:33.233Z,34.7
2018-06-13T11:35:35.966Z,34.7
2018-06-13T11:36:38.404Z,34.7
2018-06-13T11:37:41.142Z,35.2
2018-06-13T11:38:43.882Z,34.7
2018-06-13T11:39:46.626Z,34.2
2018-06-13T11:40:49.392Z,34.7
2018-06-13T11:41:52.125Z,34.2
2018-06-13T11:42:54.849Z,33.7
2018-06-13T11:43:57.624Z,34.2
2018-06-13T11:45:00.354Z,34.2
2018-06-13T11:46:03.102Z,34.2
2018-06-13T11:47:05.833Z,34.2
2018-06-13T11:48:08.718Z,33.7
2018-06-13T11:49:11.502Z,33.7
2018-06-13T11:50:14.233Z,34.2
2018-06-13T11:51:16.953Z,33.2
2018-06-13T11:52:19.696Z,33.2
2018-06-13T11:53:22.432Z,33.2
2018-06-13T11:54:25.162Z,33.2
2018-06-13T11:55:27.893Z,33.2
2018-06-13T11:56:30.623Z,33.7
2018-06-13T11:57:33.354Z,33.2
2018-06-13T11:58:36.079Z,34.2
2018-06-13T11:59:38.846Z,33.7
2018-06-13T12:00:41.574Z,33.7
2018-06-13T12:01:44.191Z,33.2
2018-06-13T12:02:47.057Z,33.2
2018-06-13T12:03:49.785Z,33.7
2018-06-13T12:04:52.541Z,34.2
2018-06-13T12:05:55.272Z,34.2
2018-06-13T12:06:58.017Z,34.2
2018-06-13T12:08:00.746Z,33.7
2018-06-13T12:09:03.463Z,33.7
2018-06-13T12:10:06.211Z,34.2
2018-06-13T12:11:08.963Z,34.2
2018-06-13T12:12:11.706Z,34.2
2018-06-13T12:13:14.436Z,35.2
2018-06-13T12:14:17.164Z,34.2
2018-06-13T12:15:19.916Z,34.2
2018-06-13T12:16:22.651Z,34.7
2018-06-13T12:17:25.376Z,34.7
2018-06-13T12:18:27.842Z,34.7
2018-06-13T12:19:30.564Z,34.7
2018-06-13T12:20:33.297Z,34.7
2018-06-13T12:21:35.749Z,34.2
2018-06-13T12:22:38.905Z,34.7
2018-06-13T12:23:41.704Z,34.7
2018-06-13T12:24:44.425Z,34.7
2018-06-13T12:25:47.154Z,34.7
2018-06-13T12:26:49.886Z,35.2
2018-06-13T12:27:52.603Z,34.7
2018-06-13T12:28:55.327Z,34.7
2018-06-13T12:29:58.065Z,35.2
2018-06-13T12:31:00.795Z,35.2
2018-06-13T12:32:03.542Z,34.7
2018-06-13T12:33:06.282Z,35.2
2018-06-13T12:34:09.126Z,34.7
2018-06-13T12:35:11.905Z,34.7
2018-06-13T12:36:14.625Z,35.2
2018-06-13T12:37:17.370Z,35.2
2018-06-13T12:38:20.095Z,35.2
2018-06-13T12:39:22.810Z,35.2
2018-06-13T12:40:25.563Z,34.7
2018-06-13T12:41:28.277Z,35.2
2018-06-13T12:42:31.001Z,35.2
2018-06-13T16:15:09.592Z,33.7
2018-06-13T16:16:12.350Z,33.7
2018-06-13T16:17:15.328Z,33.7
2018-06-13T16:18:18.080Z,34.2
2018-06-13T16:19:20.847Z,33.7
2018-06-13T16:20:23.596Z,34.2
2018-06-13T16:21:26.318Z,33.7
2018-06-13T16:22:29.042Z,34.7
2018-06-13T16:23:31.784Z,34.2
2018-06-13T16:24:34.531Z,34.2
2018-06-13T16:25:37.250Z,34.2
2018-06-13T16:26:39.979Z,34.7
2018-06-13T16:27:42.721Z,34.7
2018-06-13T16:28:45.452Z,35.2
2018-06-13T16:29:48.171Z,34.7
2018-06-13T16:30:50.920Z,34.7
2018-06-13T16:31:53.379Z,34.7
2018-06-13T16:32:56.104Z,34.7
2018-06-13T16:33:58.824Z,34.2
2018-06-13T16:35:01.562Z,34.7
2018-06-13T16:36:04.306Z,34.2
2018-06-13T16:37:07.035Z,34.7
2018-06-13T16:38:09.771Z,34.7
2018-06-13T16:39:12.520Z,35.2
2018-06-13T16:40:15.274Z,34.2
2018-06-13T16:41:18.003Z,34.7
2018-06-13T16:42:20.745Z,35.2
2018-06-13T16:43:23.465Z,34.7
2018-06-13T16:44:26.220Z,34.7
2018-06-13T16:45:28.941Z,35.2
2018-06-13T16:46:31.684Z,34.7
2018-06-13T16:47:34.398Z,34.7
2018-06-13T16:48:37.637Z,34.7
2018-06-13T16:49:40.101Z,34.7
2018-06-13T16:50:42.558Z,34.7
2018-06-13T16:51:45.333Z,35.2
2018-06-13T16:52:48.072Z,34.7
2018-06-13T16:53:50.798Z,35.2
2018-06-13T16:54:53.582Z,35.2
2018-06-13T16:55:56.304Z,34.7
2018-06-13T16:56:59.045Z,34.7
2018-06-13T16:58:01.792Z,34.7
2018-06-13T16:59:04.504Z,34.7
2018-06-13T17:00:07.247Z,34.7
2018-06-13T17:01:09.982Z,34.2
2018-06-13T17:02:12.445Z,34.7
2018-06-13T17:03:15.174Z,34.2
2018-06-13T17:04:17.914Z,34.2
2018-06-13T17:05:20.634Z,34.2
2018-06-13T17:06:22.836Z,34.2
2018-06-13T17:07:25.559Z,34.7
2018-06-13T17:08:28.291Z,34.2
2018-06-13T17:09:31.046Z,34.2
2018-06-13T17:10:33.777Z,34.2
2018-06-13T17:11:36.524Z,34.2
2018-06-13T17:12:39.278Z,33.7
2018-06-13T17:13:41.703Z,33.7
2018-06-13T17:14:44.443Z,33.7
2018-06-13T17:15:47.170Z,33.7
2018-06-13T17:16:49.930Z,33.2
2018-06-13T17:17:52.659Z,33.7
2018-06-13T17:18:55.382Z,33.2
2018-06-13T17:19:58.105Z,33.2
2018-06-13T17:21:00.834Z,33.7
2018-06-13T17:22:03.561Z,33.7
2018-06-13T17:23:06.005Z,33.7
2018-06-13T17:24:08.754Z,33.7
2018-06-13T17:25:11.502Z,33.7
2018-06-13T17:26:14.224Z,33.7
2018-06-13T17:27:16.958Z,33.7